createdAt,value
2019-04-29T00:02:25.496Z,97910.00
2019-04-29T00:04:57.818Z,97904.00
2019-04-29T00:07:30.106Z,97913.00
2019-04-29T00:10:01.519Z,97899.00
2019-04-29T00:12:33.473Z,97901.00
2019-04-29T00:17:54.314Z,97912.00
2019-04-29T00:20:32.197Z,97892.00
2019-04-29T00:23:03.842Z,97895.00
2019-04-29T00:25:35.253Z,97907.00
2019-04-29T00:28:06.744Z,97904.00
2019-04-29T00:30:38.138Z,97909.00
2019-04-29T00:33:09.573Z,97907.00
2019-04-29T00:35:40.968Z,97897.00
2019-04-29T00:38:37.712Z,97907.00
2019-04-29T00:41:27.976Z,97906.00
2019-04-29T00:44:04.861Z,97898.00
2019-04-29T00:46:36.290Z,97902.00
2019-04-29T00:49:07.638Z,97907.00
2019-04-29T00:51:39.024Z,97898.00
2019-04-29T00:54:17.666Z,97895.00
2019-04-29T00:56:48.980Z,97903.00
2019-04-29T00:59:21.475Z,97905.00
2019-04-29T01:01:52.880Z,97901.00
2019-04-29T01:04:24.348Z,97892.00
2019-04-29T01:06:55.800Z,97902.00
2019-04-29T01:09:27.812Z,97898.00
2019-04-29T01:11:59.151Z,97895.00
2019-04-29T01:14:30.499Z,97892.00
2019-04-29T01:17:01.848Z,97892.00
2019-04-29T01:19:33.234Z,97887.00
2019-04-29T01:22:04.586Z,97896.00
2019-04-29T01:24:35.945Z,97904.00
2019-04-29T01:27:16.718Z,97911.00
2019-04-29T01:29:48.061Z,97895.00
2019-04-29T01:32:19.380Z,97898.00
2019-04-29T01:34:55.378Z,97907.00
2019-04-29T01:37:43.599Z,97906.00
2019-04-29T01:40:30.265Z,97898.00
2019-04-29T01:43:01.617Z,97896.00
2019-04-29T01:45:33.054Z,97894.00
2019-04-29T01:48:04.367Z,97900.00
2019-04-29T01:50:36.677Z,97894.00
2019-04-29T01:53:07.991Z,97907.00
2019-04-29T01:55:39.361Z,97905.00
2019-04-29T01:58:10.682Z,97903.00
2019-04-29T02:00:42.004Z,97900.00
2019-04-29T02:03:13.403Z,97897.00
2019-04-29T02:05:44.722Z,97914.00
2019-04-29T02:08:16.085Z,97912.00
2019-04-29T02:10:47.455Z,97897.00
2019-04-29T02:13:18.825Z,97898.00
2019-04-29T02:15:50.137Z,97906.00
2019-04-29T02:18:21.536Z,97902.00
2019-04-29T02:20:52.952Z,97898.00
2019-04-29T02:23:33.331Z,97892.00
2019-04-29T02:26:05.277Z,97892.00
2019-04-29T02:28:36.641Z,97894.00
2019-04-29T02:31:25.740Z,97911.00
2019-04-29T02:33:57.111Z,97915.00
2019-04-29T02:36:30.081Z,97900.00
2019-04-29T02:39:20.173Z,97905.00
2019-04-29T02:42:09.417Z,97917.00
2019-04-29T02:44:40.801Z,97916.00
2019-04-29T02:47:12.125Z,97904.00
2019-04-29T02:49:43.485Z,97915.00
2019-04-29T02:52:14.775Z,97907.00
2019-04-29T02:54:46.886Z,97890.00
2019-04-29T02:57:35.983Z,97902.00
2019-04-29T03:00:29.479Z,97908.00
2019-04-29T03:03:07.700Z,97913.00
2019-04-29T03:05:48.729Z,97901.00
2019-04-29T03:08:20.079Z,97902.00
2019-04-29T03:10:52.014Z,97902.00
2019-04-29T03:13:23.350Z,97912.00
2019-04-29T03:15:54.679Z,97917.00
2019-04-29T03:18:28.172Z,97909.00
2019-04-29T03:21:12.131Z,97897.00
2019-04-29T03:23:43.583Z,97902.00
2019-04-29T03:26:14.885Z,97906.00
2019-04-29T03:28:46.306Z,97916.00
2019-04-29T03:31:17.766Z,97911.00
2019-04-29T03:33:49.049Z,97909.00
2019-04-29T03:36:20.381Z,97904.00
2019-04-29T03:38:51.712Z,97904.00
2019-04-29T03:41:23.055Z,97902.00
2019-04-29T03:43:54.396Z,97897.00
2019-04-29T03:46:25.718Z,97906.00
2019-04-29T03:48:57.141Z,97906.00
2019-04-29T03:51:28.438Z,97914.00
2019-04-29T03:53:59.797Z,97909.00
2019-04-29T03:56:31.198Z,97905.00
2019-04-29T03:59:02.554Z,97904.00
2019-04-29T04:01:39.083Z,97900.00
2019-04-29T04:04:24.120Z,97892.00
2019-04-29T04:07:14.406Z,97910.00
2019-04-29T04:09:45.747Z,97905.00
2019-04-29T04:12:17.055Z,97912.00
2019-04-29T04:14:48.389Z,97919.00
2019-04-29T04:17:28.750Z,97899.00
2019-04-29T04:20:00.086Z,97912.00
2019-04-29T04:22:46.492Z,97927.00
2019-04-29T04:25:18.618Z,97922.00
2019-04-29T04:27:49.947Z,97917.00
2019-04-29T04:30:21.581Z,97907.00
2019-04-29T04:32:52.924Z,97922.00
2019-04-29T04:35:24.439Z,97933.00
2019-04-29T04:37:55.746Z,97927.00
2019-04-29T04:40:40.263Z,97933.00
2019-04-29T04:43:11.586Z,97929.00
2019-04-29T04:45:43.048Z,97926.00
2019-04-29T04:48:14.389Z,97944.00
2019-04-29T04:50:45.782Z,97924.00
2019-04-29T04:53:17.113Z,97932.00
2019-04-29T04:55:50.109Z,97936.00
2019-04-29T04:58:21.434Z,97933.00
2019-04-29T05:00:53.053Z,97941.00
2019-04-29T05:03:24.776Z,97944.00
2019-04-29T05:06:01.587Z,97933.00
2019-04-29T05:08:32.855Z,97924.00
2019-04-29T05:11:04.209Z,97932.00
2019-04-29T05:13:35.583Z,97947.00
2019-04-29T05:16:06.948Z,97940.00
2019-04-29T05:18:38.298Z,97947.00
2019-04-29T05:21:09.708Z,97943.00
2019-04-29T05:23:41.707Z,97936.00
2019-04-29T05:26:13.253Z,97946.00
2019-04-29T05:28:44.620Z,97954.00
2019-04-29T05:31:15.962Z,97940.00
2019-04-29T05:33:47.376Z,97952.00
2019-04-29T05:36:38.265Z,97930.00
2019-04-29T05:39:21.932Z,97937.00
2019-04-29T05:41:53.266Z,97939.00
2019-04-29T05:44:49.636Z,97930.00
2019-04-29T05:47:31.423Z,97939.00
2019-04-29T05:50:20.659Z,97939.00
2019-04-29T05:52:57.844Z,97933.00
2019-04-29T05:55:30.174Z,97945.00
2019-04-29T05:58:11.427Z,97956.00
2019-04-29T06:00:53.252Z,97959.00
2019-04-29T06:03:24.596Z,97958.00
2019-04-29T06:05:55.901Z,97956.00
2019-04-29T06:08:27.538Z,97948.00
2019-04-29T06:10:58.947Z,97957.00
2019-04-29T06:13:30.297Z,97959.00
2019-04-29T06:16:01.636Z,97955.00
2019-04-29T06:18:33.109Z,97965.00
2019-04-29T06:21:09.189Z,97963.00
2019-04-29T06:23:37.655Z,97964.00
2019-04-29T06:26:08.977Z,97957.00
2019-04-29T06:28:40.337Z,97946.00
2019-04-29T06:31:11.643Z,97949.00
2019-04-29T06:33:43.121Z,97952.00
2019-04-29T06:36:14.555Z,97958.00
2019-04-29T06:38:45.897Z,97959.00
2019-04-29T06:41:17.218Z,97959.00
2019-04-29T06:43:48.608Z,97956.00
2019-04-29T06:46:19.945Z,97963.00
2019-04-29T06:48:51.431Z,97961.00
2019-04-29T06:51:22.776Z,97970.00
2019-04-29T06:53:54.115Z,97965.00
2019-04-29T06:56:25.451Z,97963.00
2019-04-29T06:58:56.856Z,97961.00
2019-04-29T07:01:28.202Z,97967.00
2019-04-29T07:04:01.207Z,97975.00
2019-04-29T07:06:32.812Z,97971.00
2019-04-29T07:09:05.134Z,97971.00
2019-04-29T07:11:38.273Z,97981.00
2019-04-29T07:14:09.584Z,97980.00
2019-04-29T07:16:41.041Z,97978.00
2019-04-29T07:19:12.511Z,97981.00
2019-04-29T07:21:46.998Z,97982.00
2019-04-29T07:24:20.022Z,97981.00
2019-04-29T07:26:49.921Z,97969.00
2019-04-29T07:29:25.433Z,97969.00
2019-04-29T07:31:54.297Z,97977.00
2019-04-29T07:34:29.040Z,97972.00
2019-04-29T07:36:59.461Z,97986.00
2019-04-29T07:39:31.813Z,97975.00
2019-04-29T07:42:04.064Z,97987.00
2019-04-29T07:44:44.657Z,97976.00
2019-04-29T07:47:16.003Z,97973.00
2019-04-29T07:49:51.496Z,97988.00
2019-04-29T07:52:20.489Z,97980.00
2019-04-29T07:54:55.205Z,97970.00
2019-04-29T07:57:24.916Z,97986.00
2019-04-29T07:59:56.279Z,97983.00
2019-04-29T08:02:27.766Z,97971.00
2019-04-29T08:04:59.147Z,97975.00
2019-04-29T08:07:31.603Z,97974.00
2019-04-29T08:10:04.400Z,97975.00
2019-04-29T08:12:36.957Z,97971.00
2019-04-29T08:15:09.416Z,97957.00
2019-04-29T08:17:40.758Z,97965.00
2019-04-29T08:20:12.125Z,97964.00
2019-04-29T08:22:43.496Z,97967.00
2019-04-29T08:25:14.915Z,97973.00
2019-04-29T08:27:46.357Z,97970.00
2019-04-29T08:30:18.329Z,97965.00
2019-04-29T08:32:49.812Z,97969.00
2019-04-29T08:35:21.375Z,97964.00
2019-04-29T08:37:52.729Z,97963.00
2019-04-29T08:40:24.151Z,97966.00
2019-04-29T08:43:09.248Z,97978.00
2019-04-29T08:45:44.271Z,97969.00
2019-04-29T08:48:16.663Z,97957.00
2019-04-29T08:50:47.994Z,97971.00
2019-04-29T08:53:20.421Z,97967.00
2019-04-29T08:55:51.815Z,97958.00
2019-04-29T08:58:23.155Z,97963.00
2019-04-29T09:00:55.728Z,97971.00
2019-04-29T09:03:39.705Z,97968.00
2019-04-29T09:06:05.403Z,97970.00
2019-04-29T09:08:34.651Z,97958.00
2019-04-29T09:11:08.053Z,97965.00
2019-04-29T09:13:39.141Z,97961.00
2019-04-29T09:16:10.661Z,97958.00
2019-04-29T09:18:42.057Z,97958.00
2019-04-29T09:21:13.388Z,97966.00
2019-04-29T09:23:44.734Z,97954.00
2019-04-29T09:26:28.988Z,97962.00
2019-04-29T09:29:03.814Z,97958.00
2019-04-29T09:31:36.563Z,97957.00
2019-04-29T09:34:07.900Z,97952.00
2019-04-29T09:36:39.506Z,97946.00
2019-04-29T09:39:10.880Z,97947.00
2019-04-29T09:41:49.986Z,97945.00
2019-04-29T09:44:45.013Z,97941.00
2019-04-29T09:47:16.483Z,97942.00
2019-04-29T09:49:47.959Z,97935.00
2019-04-29T09:52:19.364Z,97937.00
2019-04-29T09:54:50.780Z,97929.00
2019-04-29T09:57:22.176Z,97929.00
2019-04-29T10:00:00.228Z,97932.00
2019-04-29T10:03:05.240Z,97933.00
2019-04-29T10:05:42.630Z,97928.00
2019-04-29T10:08:14.000Z,97923.00
2019-04-29T10:10:46.114Z,97929.00
2019-04-29T10:13:17.477Z,97926.00
2019-04-29T10:16:00.377Z,97920.00
2019-04-29T10:18:47.525Z,97928.00
2019-04-29T10:21:21.377Z,97911.00
2019-04-29T10:23:52.055Z,97913.00
2019-04-29T10:26:23.364Z,97913.00
2019-04-29T10:28:59.242Z,97904.00
2019-04-29T10:31:30.682Z,97915.00
2019-04-29T10:34:02.036Z,97908.00
2019-04-29T10:36:33.354Z,97897.00
2019-04-29T10:39:27.862Z,97893.00
2019-04-29T10:42:01.184Z,97897.00
2019-04-29T10:44:44.830Z,97895.00
2019-04-29T10:47:35.944Z,97889.00
2019-04-29T10:50:15.432Z,97888.00
2019-04-29T10:52:44.822Z,97894.00
2019-04-29T10:55:17.361Z,97893.00
2019-04-29T10:57:51.456Z,97894.00
2019-04-29T11:00:52.787Z,97903.00
2019-04-29T11:03:25.016Z,97899.00
2019-04-29T11:06:01.724Z,97892.00
2019-04-29T11:08:44.873Z,97890.00
2019-04-29T11:11:24.107Z,97890.00
2019-04-29T11:13:50.605Z,97880.00
2019-04-29T11:16:22.936Z,97870.00
2019-04-29T11:19:00.187Z,97876.00
2019-04-29T11:21:31.168Z,97883.00
2019-04-29T11:24:11.699Z,97874.00
2019-04-29T11:27:11.614Z,97877.00
2019-04-29T11:29:35.778Z,97866.00
2019-04-29T11:32:12.536Z,97866.00
2019-04-29T11:35:01.728Z,97866.00
2019-04-29T11:37:33.235Z,97875.00
2019-04-29T11:40:05.460Z,97855.00
2019-04-29T11:42:41.646Z,97869.00
2019-04-29T11:45:13.578Z,97867.00
2019-04-29T11:47:44.649Z,97874.00
2019-04-29T11:50:22.453Z,97869.00
2019-04-29T11:52:55.578Z,97859.00
2019-04-29T11:55:27.067Z,97876.00
2019-04-29T11:58:03.613Z,97869.00
2019-04-29T12:01:10.383Z,97879.00
2019-04-29T12:03:43.961Z,97870.00
2019-04-29T12:06:20.257Z,97866.00
2019-04-29T12:08:53.335Z,97861.00
2019-04-29T12:11:22.569Z,97862.00
2019-04-29T12:14:11.209Z,97861.00
2019-04-29T12:16:49.089Z,97849.00
2019-04-29T12:19:23.931Z,97850.00
2019-04-29T12:21:55.603Z,97864.00
2019-04-29T12:24:27.073Z,97846.00
2019-04-29T12:26:58.547Z,97844.00
2019-04-29T12:29:29.925Z,97841.00
2019-04-29T12:32:26.706Z,97835.00
2019-04-29T12:35:26.214Z,97842.00
2019-04-29T12:38:15.415Z,97831.00
2019-04-29T12:41:21.178Z,97829.00
2019-04-29T12:43:59.481Z,97824.00
2019-04-29T12:46:37.129Z,97824.00
2019-04-29T12:49:13.430Z,97825.00
2019-04-29T12:51:41.532Z,97825.00
2019-04-29T12:54:12.897Z,97824.00
2019-04-29T12:56:47.642Z,97830.00
2019-04-29T12:59:18.337Z,97818.00
2019-04-29T13:02:14.053Z,97814.00
2019-04-29T13:05:09.401Z,97821.00
2019-04-29T13:08:10.979Z,97820.00
2019-04-29T13:10:50.251Z,97817.00
2019-04-29T13:13:22.133Z,97827.00
2019-04-29T13:16:11.401Z,97823.00
2019-04-29T13:19:11.383Z,97806.00
2019-04-29T13:21:34.807Z,97803.00
2019-04-29T13:24:21.753Z,97807.00
2019-04-29T13:26:42.618Z,97798.00
2019-04-29T13:29:26.331Z,97801.00
2019-04-29T13:31:45.367Z,97813.00
2019-04-29T13:34:29.256Z,97785.00
2019-04-29T13:37:06.504Z,97791.00
2019-04-29T13:39:39.494Z,97792.00
2019-04-29T13:42:02.994Z,97785.00
2019-04-29T13:44:41.711Z,97788.00
2019-04-29T13:47:50.205Z,97797.00
2019-04-29T13:50:38.866Z,97793.00
2019-04-29T13:53:01.585Z,97775.00
2019-04-29T13:55:47.954Z,97784.00
2019-04-29T13:58:06.039Z,97778.00
2019-04-29T14:00:55.732Z,97770.00
2019-04-29T14:03:51.514Z,97771.00
2019-04-29T14:06:23.029Z,97762.00
2019-04-29T14:08:54.364Z,97769.00
2019-04-29T14:11:27.699Z,97768.00
2019-04-29T14:13:59.069Z,97762.00
2019-04-29T14:16:30.675Z,97772.00
2019-04-29T14:19:02.032Z,97767.00
2019-04-29T14:21:33.364Z,97767.00
2019-04-29T14:24:04.695Z,97771.00
2019-04-29T14:26:37.053Z,97753.00
2019-04-29T14:29:09.174Z,97766.00
2019-04-29T14:31:40.518Z,97755.00
2019-04-29T14:34:21.309Z,97765.00
2019-04-29T14:36:57.455Z,97748.00
2019-04-29T14:39:36.504Z,97750.00
2019-04-29T14:42:02.440Z,97758.00
2019-04-29T14:44:50.944Z,97751.00
2019-04-29T14:47:39.720Z,97759.00
2019-04-29T14:50:15.749Z,97754.00
2019-04-29T14:52:44.776Z,97752.00
2019-04-29T14:55:20.203Z,97746.00
2019-04-29T14:57:50.624Z,97773.00
2019-04-29T15:00:37.405Z,97766.00
2019-04-29T15:03:08.801Z,97755.00
2019-04-29T15:05:40.149Z,97746.00
2019-04-29T15:08:11.492Z,97753.00
2019-04-29T15:10:44.419Z,97753.00
2019-04-29T15:13:21.745Z,97743.00
2019-04-29T15:16:14.379Z,97746.00
2019-04-29T15:19:13.152Z,97755.00
2019-04-29T15:21:47.964Z,97753.00
2019-04-29T15:24:19.515Z,97743.00
2019-04-29T15:26:50.848Z,97742.00
2019-04-29T15:29:22.248Z,97760.00
2019-04-29T15:31:53.597Z,97761.00
2019-04-29T15:34:24.996Z,97754.00
2019-04-29T15:36:56.366Z,97748.00
2019-04-29T15:39:27.778Z,97754.00
2019-04-29T15:42:01.897Z,97753.00
2019-04-29T15:44:32.225Z,97739.00
2019-04-29T15:47:03.605Z,97758.00
2019-04-29T15:49:34.971Z,97755.00
2019-04-29T15:52:06.312Z,97752.00
2019-04-29T15:54:39.126Z,97752.00
2019-04-29T15:57:15.049Z,97756.00
2019-04-29T15:59:48.905Z,97743.00
2019-04-29T16:02:16.660Z,97752.00
2019-04-29T16:05:04.814Z,97751.00
2019-04-29T16:07:46.897Z,97741.00
2019-04-29T16:10:51.674Z,97754.00
2019-04-29T16:13:27.434Z,97753.00
2019-04-29T16:15:55.623Z,97727.00
2019-04-29T16:18:27.086Z,97731.00
2019-04-29T16:20:58.431Z,97736.00
2019-04-29T16:23:32.850Z,97729.00
2019-04-29T16:26:02.868Z,97741.00
2019-04-29T16:28:39.794Z,97729.00
2019-04-29T16:31:12.317Z,97717.00
2019-04-29T16:33:40.500Z,97727.00
2019-04-29T16:36:12.015Z,97734.00
2019-04-29T16:38:46.438Z,97732.00
2019-04-29T16:41:43.723Z,97723.00
2019-04-29T16:44:34.097Z,97721.00
2019-04-29T16:46:49.385Z,97715.00
2019-04-29T16:49:20.919Z,97711.00
2019-04-29T16:51:53.477Z,97712.00
2019-04-29T16:54:28.484Z,97711.00
2019-04-29T16:56:58.472Z,97703.00
2019-04-29T16:59:29.846Z,97712.00
2019-04-29T17:02:01.335Z,97720.00
2019-04-29T17:04:32.709Z,97719.00
2019-04-29T17:07:12.201Z,97713.00
2019-04-29T17:09:57.773Z,97720.00
2019-04-29T17:12:36.446Z,97720.00
2019-04-29T17:15:23.700Z,97715.00
2019-04-29T17:17:42.245Z,97715.00
2019-04-29T17:20:13.942Z,97708.00
2019-04-29T17:22:45.342Z,97730.00
2019-04-29T17:25:17.087Z,97726.00
2019-04-29T17:28:24.305Z,97702.00
2019-04-29T17:31:11.876Z,97710.00
2019-04-29T17:33:49.837Z,97715.00
2019-04-29T17:36:23.617Z,97704.00
2019-04-29T17:38:51.721Z,97716.00
2019-04-29T17:41:23.113Z,97702.00
2019-04-29T17:44:02.950Z,97710.00
2019-04-29T17:46:57.252Z,97708.00
2019-04-29T17:49:47.755Z,97698.00
2019-04-29T17:52:25.821Z,97707.00
2019-04-29T17:55:05.063Z,97696.00
2019-04-29T17:57:41.737Z,97702.00
2019-04-29T18:00:43.911Z,97694.00
2019-04-29T18:03:41.541Z,97696.00
2019-04-29T18:06:24.123Z,97698.00
2019-04-29T18:09:29.213Z,97690.00
2019-04-29T18:12:05.141Z,97693.00
2019-04-29T18:14:40.312Z,97702.00
2019-04-29T18:17:10.656Z,97698.00
2019-04-29T18:20:13.320Z,97698.00
2019-04-29T18:22:57.547Z,97696.00
2019-04-29T18:25:47.922Z,97696.00
2019-04-29T18:28:19.386Z,97711.00
2019-04-29T18:30:54.480Z,97700.00
2019-04-29T18:33:29.857Z,97699.00
2019-04-29T18:36:03.844Z,97716.00
2019-04-29T18:38:29.945Z,97696.00
2019-04-29T18:41:01.318Z,97707.00
2019-04-29T18:43:32.684Z,97717.00
2019-04-29T18:46:05.959Z,97711.00
2019-04-29T18:48:37.336Z,97722.00
2019-04-29T18:51:08.716Z,97718.00
2019-04-29T18:53:40.140Z,97707.00
2019-04-29T18:56:11.628Z,97710.00
2019-04-29T18:58:46.835Z,97701.00
2019-04-29T19:01:16.937Z,97708.00
2019-04-29T19:03:59.184Z,97718.00
2019-04-29T19:06:30.549Z,97707.00
2019-04-29T19:09:02.809Z,97713.00
2019-04-29T19:11:35.807Z,97720.00
2019-04-29T19:14:07.204Z,97718.00
2019-04-29T19:16:39.593Z,97728.00
2019-04-29T19:19:11.161Z,97726.00
2019-04-29T19:21:43.600Z,97717.00
2019-04-29T19:24:16.214Z,97722.00
2019-04-29T19:26:47.548Z,97710.00
2019-04-29T19:29:18.908Z,97724.00
2019-04-29T19:31:50.380Z,97733.00
2019-04-29T19:34:21.755Z,97738.00
2019-04-29T19:36:55.737Z,97740.00
2019-04-29T19:39:27.118Z,97733.00
2019-04-29T19:41:58.568Z,97717.00
2019-04-29T19:44:33.380Z,97701.00
2019-04-29T19:47:03.019Z,97696.00
2019-04-29T19:49:35.965Z,97710.00
2019-04-29T19:52:08.425Z,97716.00
2019-04-29T19:54:39.902Z,97708.00
2019-04-29T19:57:11.258Z,97715.00
2019-04-29T19:59:49.849Z,97723.00
2019-04-29T20:02:17.034Z,97701.00
2019-04-29T20:04:56.100Z,97723.00
2019-04-29T20:07:27.817Z,97714.00
2019-04-29T20:10:05.135Z,97723.00
2019-04-29T20:12:32.839Z,97732.00
2019-04-29T20:15:07.685Z,97719.00
2019-04-29T20:17:58.249Z,97721.00
2019-04-29T20:20:39.761Z,97710.00
2019-04-29T20:23:11.359Z,97720.00
2019-04-29T20:25:42.940Z,97703.00
2019-04-29T20:28:18.421Z,97723.00
2019-04-29T20:30:50.319Z,97704.00
2019-04-29T20:33:20.753Z,97700.00
2019-04-29T20:35:52.256Z,97695.00
2019-04-29T20:38:25.254Z,97675.00
2019-04-29T20:40:56.895Z,97686.00
2019-04-29T20:43:29.775Z,97683.00
2019-04-29T20:46:02.433Z,97694.00
2019-04-29T20:48:36.745Z,97693.00
2019-04-29T20:51:13.571Z,97687.00
2019-04-29T20:53:46.146Z,97675.00
2019-04-29T20:56:24.690Z,97677.00
2019-04-29T20:58:50.953Z,97676.00
2019-04-29T21:01:29.190Z,97681.00
2019-04-29T21:04:00.584Z,97685.00
2019-04-29T21:06:32.730Z,97692.00
2019-04-29T21:09:08.382Z,97690.00
2019-04-29T21:11:56.666Z,97681.00
2019-04-29T21:14:39.637Z,97687.00
2019-04-29T21:17:11.348Z,97694.00
2019-04-29T21:19:42.836Z,97683.00
2019-04-29T21:22:22.242Z,97688.00
2019-04-29T21:24:49.507Z,97686.00
2019-04-29T21:27:22.687Z,97679.00
2019-04-29T21:29:55.483Z,97674.00
2019-04-29T21:32:30.550Z,97677.00
2019-04-29T21:35:15.113Z,97672.00
2019-04-29T21:37:54.410Z,97677.00
2019-04-29T21:40:31.614Z,97674.00
2019-04-29T21:43:13.449Z,97687.00
2019-04-29T21:45:44.923Z,97687.00
2019-04-29T21:48:16.805Z,97674.00
2019-04-29T21:50:49.276Z,97670.00
2019-04-29T21:53:20.631Z,97674.00
2019-04-29T21:55:51.990Z,97674.00
2019-04-29T21:58:23.328Z,97676.00
2019-04-29T22:00:59.074Z,97670.00
2019-04-29T22:03:30.556Z,97668.00
2019-04-29T22:06:03.545Z,97675.00
2019-04-29T22:08:35.474Z,97675.00
2019-04-29T22:11:07.160Z,97667.00
2019-04-29T22:13:39.144Z,97678.00
2019-04-29T22:16:11.530Z,97677.00
2019-04-29T22:18:44.613Z,97674.00
2019-04-29T22:21:22.076Z,97667.00
2019-04-29T22:23:51.350Z,97666.00
2019-04-29T22:26:26.582Z,97678.00
2019-04-29T22:29:01.738Z,97665.00
2019-04-29T22:31:33.809Z,97672.00
2019-04-29T22:34:02.452Z,97675.00
2019-04-29T22:36:33.818Z,97673.00
2019-04-29T22:39:06.269Z,97677.00
2019-04-29T22:42:04.090Z,97672.00
2019-04-29T22:44:36.713Z,97677.00
2019-04-29T22:47:08.082Z,97681.00
2019-04-29T22:49:39.399Z,97668.00
2019-04-29T22:52:10.778Z,97686.00
2019-04-29T22:54:42.140Z,97677.00
2019-04-29T22:57:15.523Z,97673.00
2019-04-29T22:59:49.544Z,97677.00
2019-04-29T23:02:20.150Z,97681.00
2019-04-29T23:04:53.785Z,97669.00
2019-04-29T23:07:25.810Z,97681.00
2019-04-29T23:09:57.586Z,97672.00
2019-04-29T23:12:29.166Z,97674.00
2019-04-29T23:15:00.507Z,97673.00
2019-04-29T23:17:31.998Z,97673.00
2019-04-29T23:20:12.337Z,97666.00
2019-04-29T23:22:52.608Z,97671.00
2019-04-29T23:25:29.897Z,97665.00
2019-04-29T23:28:01.466Z,97663.00
2019-04-29T23:30:33.771Z,97644.00
2019-04-29T23:33:05.175Z,97652.00
2019-04-29T23:35:39.696Z,97649.00
2019-04-29T23:38:09.571Z,97653.00
2019-04-29T23:40:41.232Z,97644.00
2019-04-29T23:43:12.658Z,97656.00
2019-04-29T23:45:44.988Z,97652.00
2019-04-29T23:48:19.927Z,97644.00
2019-04-29T23:50:49.637Z,97646.00
2019-04-29T23:53:25.248Z,97630.00
2019-04-29T23:55:55.601Z,97639.00
2019-04-29T23:58:46.771Z,97632.00
